sensor_id;sensor_type;location;lat;lon;timestamp;P1;durP1;ratioP1;P2;durP2;ratioP2
75377;SDS011;63959;51.960;5.886;2023-04-21T00:00:27;28.88;;;15.75;;
75377;SDS011;63959;51.960;5.886;2023-04-21T00:02:59;32.70;;;16.65;;
75377;SDS011;63959;51.960;5.886;2023-04-21T00:05:28;38.22;;;18.52;;
75377;SDS011;63959;51.960;5.886;2023-04-21T00:07:57;30.95;;;15.65;;
75377;SDS011;63959;51.960;5.886;2023-04-21T00:10:26;34.45;;;16.98;;
75377;SDS011;63959;51.960;5.886;2023-04-21T00:12:55;35.17;;;16.92;;
75377;SDS011;63959;51.960;5.886;2023-04-21T00:15:23;36.15;;;18.08;;
75377;SDS011;63959;51.960;5.886;2023-04-21T00:17:52;32.97;;;15.63;;
75377;SDS011;63959;51.960;5.886;2023-04-21T00:20:25;36.40;;;17.88;;
75377;SDS011;63959;51.960;5.886;2023-04-21T00:22:54;32.90;;;15.80;;
75377;SDS011;63959;51.960;5.886;2023-04-21T00:25:23;35.17;;;17.50;;
75377;SDS011;63959;51.960;5.886;2023-04-21T00:27:52;34.83;;;15.85;;
75377;SDS011;63959;51.960;5.886;2023-04-21T00:30:21;31.77;;;15.73;;
75377;SDS011;63959;51.960;5.886;2023-04-21T00:32:49;33.00;;;15.70;;
75377;SDS011;63959;51.960;5.886;2023-04-21T00:35:18;32.17;;;14.93;;
75377;SDS011;63959;51.960;5.886;2023-04-21T00:37:49;39.10;;;18.10;;
75377;SDS011;63959;51.960;5.886;2023-04-21T00:40:18;36.70;;;16.83;;
75377;SDS011;63959;51.960;5.886;2023-04-21T00:42:47;30.27;;;14.32;;
75377;SDS011;63959;51.960;5.886;2023-04-21T00:45:15;33.97;;;15.88;;
75377;SDS011;63959;51.960;5.886;2023-04-21T00:47:44;38.10;;;16.10;;
75377;SDS011;63959;51.960;5.886;2023-04-21T00:50:13;32.78;;;16.08;;
75377;SDS011;63959;51.960;5.886;2023-04-21T00:52:42;44.45;;;18.98;;
75377;SDS011;63959;51.960;5.886;2023-04-21T00:55:14;38.90;;;18.27;;
75377;SDS011;63959;51.960;5.886;2023-04-21T00:57:43;36.38;;;17.38;;
75377;SDS011;63959;51.960;5.886;2023-04-21T01:00:14;38.78;;;18.55;;
75377;SDS011;63959;51.960;5.886;2023-04-21T01:02:42;31.90;;;15.27;;
75377;SDS011;63959;51.960;5.886;2023-04-21T01:05:13;44.22;;;18.95;;
75377;SDS011;63959;51.960;5.886;2023-04-21T01:07:42;32.22;;;14.77;;
75377;SDS011;63959;51.960;5.886;2023-04-21T01:10:14;35.53;;;16.55;;
75377;SDS011;63959;51.960;5.886;2023-04-21T01:12:45;29.52;;;14.07;;
75377;SDS011;63959;51.960;5.886;2023-04-21T01:15:15;43.97;;;20.42;;
75377;SDS011;63959;51.960;5.886;2023-04-21T01:17:44;35.83;;;16.05;;
75377;SDS011;63959;51.960;5.886;2023-04-21T01:20:14;34.65;;;15.70;;
75377;SDS011;63959;51.960;5.886;2023-04-21T01:22:45;38.40;;;17.13;;
75377;SDS011;63959;51.960;5.886;2023-04-21T01:25:16;41.33;;;18.90;;
75377;SDS011;63959;51.960;5.886;2023-04-21T01:27:47;36.85;;;16.95;;
75377;SDS011;63959;51.960;5.886;2023-04-21T01:30:16;38.13;;;17.27;;
75377;SDS011;63959;51.960;5.886;2023-04-21T01:32:45;39.75;;;19.27;;
75377;SDS011;63959;51.960;5.886;2023-04-21T01:35:14;33.55;;;15.10;;
75377;SDS011;63959;51.960;5.886;2023-04-21T01:37:45;32.88;;;15.48;;
75377;SDS011;63959;51.960;5.886;2023-04-21T01:40:14;31.58;;;14.80;;
75377;SDS011;63959;51.960;5.886;2023-04-21T01:42:42;35.75;;;16.13;;
75377;SDS011;63959;51.960;5.886;2023-04-21T01:45:12;39.30;;;19.08;;
75377;SDS011;63959;51.960;5.886;2023-04-21T01:47:41;35.65;;;16.95;;
75377;SDS011;63959;51.960;5.886;2023-04-21T01:50:12;31.67;;;15.63;;
75377;SDS011;63959;51.960;5.886;2023-04-21T01:52:41;37.22;;;18.25;;
75377;SDS011;63959;51.960;5.886;2023-04-21T01:55:13;44.63;;;19.67;;
75377;SDS011;63959;51.960;5.886;2023-04-21T01:57:42;36.08;;;17.17;;
75377;SDS011;63959;51.960;5.886;2023-04-21T02:00:11;30.02;;;15.07;;
75377;SDS011;63959;51.960;5.886;2023-04-21T02:02:43;42.15;;;18.88;;
75377;SDS011;63959;51.960;5.886;2023-04-21T02:05:12;37.63;;;17.75;;
75377;SDS011;63959;51.960;5.886;2023-04-21T02:07:41;41.35;;;19.52;;
75377;SDS011;63959;51.960;5.886;2023-04-21T02:10:09;37.35;;;17.67;;
75377;SDS011;63959;51.960;5.886;2023-04-21T02:12:41;37.38;;;17.45;;
75377;SDS011;63959;51.960;5.886;2023-04-21T02:15:10;26.70;;;13.20;;
75377;SDS011;63959;51.960;5.886;2023-04-21T02:17:39;34.33;;;14.45;;
75377;SDS011;63959;51.960;5.886;2023-04-21T02:20:10;27.75;;;13.60;;
75377;SDS011;63959;51.960;5.886;2023-04-21T02:22:39;45.22;;;20.40;;
75377;SDS011;63959;51.960;5.886;2023-04-21T02:25:08;40.38;;;18.67;;
75377;SDS011;63959;51.960;5.886;2023-04-21T02:27:38;32.72;;;16.35;;
75377;SDS011;63959;51.960;5.886;2023-04-21T02:30:09;42.75;;;19.95;;
75377;SDS011;63959;51.960;5.886;2023-04-21T02:32:39;30.75;;;15.30;;
75377;SDS011;63959;51.960;5.886;2023-04-21T02:35:10;39.67;;;18.50;;
75377;SDS011;63959;51.960;5.886;2023-04-21T02:37:38;30.60;;;15.18;;
75377;SDS011;63959;51.960;5.886;2023-04-21T02:40:08;39.53;;;19.35;;
75377;SDS011;63959;51.960;5.886;2023-04-21T02:42:37;38.55;;;18.35;;
75377;SDS011;63959;51.960;5.886;2023-04-21T02:45:06;40.55;;;19.38;;
75377;SDS011;63959;51.960;5.886;2023-04-21T02:47:37;31.40;;;14.43;;
75377;SDS011;63959;51.960;5.886;2023-04-21T02:50:07;36.97;;;17.48;;
75377;SDS011;63959;51.960;5.886;2023-04-21T02:52:36;44.72;;;21.45;;
75377;SDS011;63959;51.960;5.886;2023-04-21T02:55:05;36.15;;;17.98;;
75377;SDS011;63959;51.960;5.886;2023-04-21T02:57:34;47.80;;;21.83;;
75377;SDS011;63959;51.960;5.886;2023-04-21T03:00:03;35.88;;;17.45;;
75377;SDS011;63959;51.960;5.886;2023-04-21T03:02:32;42.85;;;20.30;;
75377;SDS011;63959;51.960;5.886;2023-04-21T03:05:03;36.03;;;16.73;;
75377;SDS011;63959;51.960;5.886;2023-04-21T03:07:32;47.05;;;21.23;;
75377;SDS011;63959;51.960;5.886;2023-04-21T03:10:03;32.83;;;15.32;;
75377;SDS011;63959;51.960;5.886;2023-04-21T03:12:32;38.78;;;18.45;;
75377;SDS011;63959;51.960;5.886;2023-04-21T03:15:03;37.65;;;19.02;;
75377;SDS011;63959;51.960;5.886;2023-04-21T03:17:33;39.38;;;18.20;;
75377;SDS011;63959;51.960;5.886;2023-04-21T03:20:05;33.55;;;15.48;;
75377;SDS011;63959;51.960;5.886;2023-04-21T03:22:36;36.08;;;17.33;;
75377;SDS011;63959;51.960;5.886;2023-04-21T03:25:05;43.70;;;21.88;;
75377;SDS011;63959;51.960;5.886;2023-04-21T03:27:34;40.33;;;19.67;;
75377;SDS011;63959;51.960;5.886;2023-04-21T03:30:03;35.72;;;17.15;;
75377;SDS011;63959;51.960;5.886;2023-04-21T03:32:33;42.10;;;20.55;;
75377;SDS011;63959;51.960;5.886;2023-04-21T03:35:05;35.97;;;18.38;;
75377;SDS011;63959;51.960;5.886;2023-04-21T03:37:33;39.17;;;18.52;;
75377;SDS011;63959;51.960;5.886;2023-04-21T03:40:02;37.85;;;19.15;;
75377;SDS011;63959;51.960;5.886;2023-04-21T03:42:33;52.08;;;23.55;;
75377;SDS011;63959;51.960;5.886;2023-04-21T03:45:01;45.40;;;22.13;;
75377;SDS011;63959;51.960;5.886;2023-04-21T03:47:32;38.63;;;17.75;;
75377;SDS011;63959;51.960;5.886;2023-04-21T03:50:05;39.30;;;18.85;;
75377;SDS011;63959;51.960;5.886;2023-04-21T03:52:33;39.47;;;19.58;;
75377;SDS011;63959;51.960;5.886;2023-04-21T03:55:02;51.10;;;24.13;;
75377;SDS011;63959;51.960;5.886;2023-04-21T03:57:33;56.33;;;25.08;;
75377;SDS011;63959;51.960;5.886;2023-04-21T04:00:02;44.65;;;21.08;;
75377;SDS011;63959;51.960;5.886;2023-04-21T04:02:38;46.97;;;24.25;;
75377;SDS011;63959;51.960;5.886;2023-04-21T04:05:09;48.67;;;24.05;;
75377;SDS011;63959;51.960;5.886;2023-04-21T04:07:38;43.58;;;20.30;;
75377;SDS011;63959;51.960;5.886;2023-04-21T04:10:09;56.35;;;28.05;;
75377;SDS011;63959;51.960;5.886;2023-04-21T04:12:37;53.22;;;26.00;;
75377;SDS011;63959;51.960;5.886;2023-04-21T04:15:06;50.70;;;23.88;;
75377;SDS011;63959;51.960;5.886;2023-04-21T04:17:35;56.20;;;27.63;;
75377;SDS011;63959;51.960;5.886;2023-04-21T04:20:05;53.80;;;25.88;;
75377;SDS011;63959;51.960;5.886;2023-04-21T04:22:36;52.60;;;25.55;;
75377;SDS011;63959;51.960;5.886;2023-04-21T04:25:05;46.88;;;23.40;;
75377;SDS011;63959;51.960;5.886;2023-04-21T04:27:34;46.15;;;22.10;;
75377;SDS011;63959;51.960;5.886;2023-04-21T04:30:03;46.75;;;22.90;;
75377;SDS011;63959;51.960;5.886;2023-04-21T04:32:32;50.25;;;25.55;;
75377;SDS011;63959;51.960;5.886;2023-04-21T04:35:02;46.47;;;22.95;;
75377;SDS011;63959;51.960;5.886;2023-04-21T04:37:31;46.10;;;23.67;;
75377;SDS011;63959;51.960;5.886;2023-04-21T04:40:04;43.78;;;22.25;;
75377;SDS011;63959;51.960;5.886;2023-04-21T04:42:34;51.85;;;25.10;;
75377;SDS011;63959;51.960;5.886;2023-04-21T04:45:04;51.05;;;25.52;;
75377;SDS011;63959;51.960;5.886;2023-04-21T04:47:36;47.65;;;22.65;;
75377;SDS011;63959;51.960;5.886;2023-04-21T04:50:05;49.92;;;25.25;;
75377;SDS011;63959;51.960;5.886;2023-04-21T04:52:34;53.83;;;27.15;;
75377;SDS011;63959;51.960;5.886;2023-04-21T04:55:06;50.85;;;26.35;;
75377;SDS011;63959;51.960;5.886;2023-04-21T04:57:35;46.70;;;24.08;;
75377;SDS011;63959;51.960;5.886;2023-04-21T05:00:06;52.55;;;26.20;;
75377;SDS011;63959;51.960;5.886;2023-04-21T05:02:36;45.50;;;23.88;;
75377;SDS011;63959;51.960;5.886;2023-04-21T05:05:05;43.67;;;22.35;;
75377;SDS011;63959;51.960;5.886;2023-04-21T05:07:34;55.58;;;25.80;;
75377;SDS011;63959;51.960;5.886;2023-04-21T05:10:06;48.25;;;25.17;;
75377;SDS011;63959;51.960;5.886;2023-04-21T05:12:35;49.00;;;24.90;;
75377;SDS011;63959;51.960;5.886;2023-04-21T05:15:03;44.45;;;22.35;;
75377;SDS011;63959;51.960;5.886;2023-04-21T05:17:32;47.35;;;25.02;;
75377;SDS011;63959;51.960;5.886;2023-04-21T05:20:02;44.25;;;23.70;;
75377;SDS011;63959;51.960;5.886;2023-04-21T05:22:35;48.45;;;24.45;;
75377;SDS011;63959;51.960;5.886;2023-04-21T05:25:06;52.65;;;26.67;;
75377;SDS011;63959;51.960;5.886;2023-04-21T05:27:35;48.58;;;24.08;;
75377;SDS011;63959;51.960;5.886;2023-04-21T05:30:04;37.80;;;19.52;;
75377;SDS011;63959;51.960;5.886;2023-04-21T05:32:33;51.20;;;25.95;;
75377;SDS011;63959;51.960;5.886;2023-04-21T05:35:02;36.95;;;20.15;;
75377;SDS011;63959;51.960;5.886;2023-04-21T05:37:31;56.30;;;27.42;;
75377;SDS011;63959;51.960;5.886;2023-04-21T05:39:59;49.90;;;24.27;;
75377;SDS011;63959;51.960;5.886;2023-04-21T05:42:31;43.17;;;22.15;;
75377;SDS011;63959;51.960;5.886;2023-04-21T05:44:59;47.90;;;25.27;;
75377;SDS011;63959;51.960;5.886;2023-04-21T05:47:28;46.65;;;23.23;;
75377;SDS011;63959;51.960;5.886;2023-04-21T05:49:57;41.40;;;22.02;;
75377;SDS011;63959;51.960;5.886;2023-04-21T05:52:25;44.65;;;24.67;;
75377;SDS011;63959;51.960;5.886;2023-04-21T05:54:54;39.88;;;21.35;;
75377;SDS011;63959;51.960;5.886;2023-04-21T05:57:24;47.00;;;24.42;;
75377;SDS011;63959;51.960;5.886;2023-04-21T05:59:55;41.67;;;21.10;;
75377;SDS011;63959;51.960;5.886;2023-04-21T06:02:24;44.63;;;23.00;;
75377;SDS011;63959;51.960;5.886;2023-04-21T06:04:52;50.35;;;24.65;;
75377;SDS011;63959;51.960;5.886;2023-04-21T06:07:21;47.65;;;24.92;;
75377;SDS011;63959;51.960;5.886;2023-04-21T06:09:50;45.30;;;23.05;;
75377;SDS011;63959;51.960;5.886;2023-04-21T06:12:18;43.88;;;22.90;;
75377;SDS011;63959;51.960;5.886;2023-04-21T06:14:47;44.78;;;23.42;;
75377;SDS011;63959;51.960;5.886;2023-04-21T06:17:18;38.95;;;21.17;;
75377;SDS011;63959;51.960;5.886;2023-04-21T06:19:47;45.45;;;23.48;;
75377;SDS011;63959;51.960;5.886;2023-04-21T06:22:18;44.95;;;23.23;;
75377;SDS011;63959;51.960;5.886;2023-04-21T06:24:47;38.20;;;21.25;;
75377;SDS011;63959;51.960;5.886;2023-04-21T06:27:15;42.03;;;22.60;;
75377;SDS011;63959;51.960;5.886;2023-04-21T06:29:44;40.88;;;22.05;;
75377;SDS011;63959;51.960;5.886;2023-04-21T06:32:13;44.03;;;22.65;;
75377;SDS011;63959;51.960;5.886;2023-04-21T06:34:44;44.15;;;22.30;;
75377;SDS011;63959;51.960;5.886;2023-04-21T06:37:13;41.78;;;22.90;;
75377;SDS011;63959;51.960;5.886;2023-04-21T06:39:41;43.05;;;22.88;;
75377;SDS011;63959;51.960;5.886;2023-04-21T06:42:10;37.47;;;20.35;;
75377;SDS011;63959;51.960;5.886;2023-04-21T06:44:41;43.38;;;22.60;;
75377;SDS011;63959;51.960;5.886;2023-04-21T06:47:10;40.00;;;22.63;;
75377;SDS011;63959;51.960;5.886;2023-04-21T06:49:39;43.53;;;23.85;;
75377;SDS011;63959;51.960;5.886;2023-04-21T06:52:10;39.78;;;23.20;;
75377;SDS011;63959;51.960;5.886;2023-04-21T06:54:39;36.78;;;22.08;;
75377;SDS011;63959;51.960;5.886;2023-04-21T06:57:07;38.72;;;22.85;;
75377;SDS011;63959;51.960;5.886;2023-04-21T06:59:36;36.40;;;21.35;;
75377;SDS011;63959;51.960;5.886;2023-04-21T07:02:05;39.65;;;21.88;;
75377;SDS011;63959;51.960;5.886;2023-04-21T07:04:33;40.97;;;22.95;;
75377;SDS011;63959;51.960;5.886;2023-04-21T07:07:04;39.00;;;22.38;;
75377;SDS011;63959;51.960;5.886;2023-04-21T07:09:35;31.85;;;18.98;;
75377;SDS011;63959;51.960;5.886;2023-04-21T07:12:04;41.70;;;23.60;;
75377;SDS011;63959;51.960;5.886;2023-04-21T07:14:33;41.05;;;23.30;;
75377;SDS011;63959;51.960;5.886;2023-04-21T07:17:03;34.10;;;19.70;;
75377;SDS011;63959;51.960;5.886;2023-04-21T07:19:32;36.28;;;20.92;;
75377;SDS011;63959;51.960;5.886;2023-04-21T07:22:01;37.28;;;21.48;;
75377;SDS011;63959;51.960;5.886;2023-04-21T07:24:30;37.08;;;21.58;;
75377;SDS011;63959;51.960;5.886;2023-04-21T07:27:02;41.65;;;24.17;;
75377;SDS011;63959;51.960;5.886;2023-04-21T07:29:31;39.33;;;23.13;;
75377;SDS011;63959;51.960;5.886;2023-04-21T07:32:00;39.28;;;23.20;;
75377;SDS011;63959;51.960;5.886;2023-04-21T07:34:28;39.95;;;21.63;;
75377;SDS011;63959;51.960;5.886;2023-04-21T07:36:57;43.25;;;24.98;;
75377;SDS011;63959;51.960;5.886;2023-04-21T07:39:26;40.08;;;22.63;;
75377;SDS011;63959;51.960;5.886;2023-04-21T07:41:55;40.38;;;24.48;;
75377;SDS011;63959;51.960;5.886;2023-04-21T07:44:28;40.13;;;23.85;;
75377;SDS011;63959;51.960;5.886;2023-04-21T07:46:59;41.78;;;24.08;;
75377;SDS011;63959;51.960;5.886;2023-04-21T07:49:28;41.75;;;23.70;;
75377;SDS011;63959;51.960;5.886;2023-04-21T07:51:56;41.42;;;24.80;;
75377;SDS011;63959;51.960;5.886;2023-04-21T07:54:26;43.55;;;25.05;;
75377;SDS011;63959;51.960;5.886;2023-04-21T07:56:54;37.78;;;22.67;;
75377;SDS011;63959;51.960;5.886;2023-04-21T07:59:23;41.25;;;24.50;;
75377;SDS011;63959;51.960;5.886;2023-04-21T08:01:54;34.05;;;20.35;;
75377;SDS011;63959;51.960;5.886;2023-04-21T08:04:23;41.22;;;23.33;;
75377;SDS011;63959;51.960;5.886;2023-04-21T08:06:51;39.05;;;23.08;;
75377;SDS011;63959;51.960;5.886;2023-04-21T08:09:20;38.83;;;22.88;;
75377;SDS011;63959;51.960;5.886;2023-04-21T08:11:49;37.72;;;23.75;;
75377;SDS011;63959;51.960;5.886;2023-04-21T08:14:18;40.67;;;24.73;;
75377;SDS011;63959;51.960;5.886;2023-04-21T08:16:47;37.80;;;22.52;;
75377;SDS011;63959;51.960;5.886;2023-04-21T08:19:18;41.55;;;22.88;;
75377;SDS011;63959;51.960;5.886;2023-04-21T08:21:47;35.70;;;21.88;;
75377;SDS011;63959;51.960;5.886;2023-04-21T08:24:15;39.40;;;23.77;;
75377;SDS011;63959;51.960;5.886;2023-04-21T08:26:44;40.40;;;23.60;;
75377;SDS011;63959;51.960;5.886;2023-04-21T08:29:13;36.60;;;23.00;;
75377;SDS011;63959;51.960;5.886;2023-04-21T08:31:41;39.63;;;23.65;;
75377;SDS011;63959;51.960;5.886;2023-04-21T08:34:11;42.15;;;24.42;;
75377;SDS011;63959;51.960;5.886;2023-04-21T08:36:44;36.80;;;23.67;;
75377;SDS011;63959;51.960;5.886;2023-04-21T08:39:13;36.85;;;21.42;;
75377;SDS011;63959;51.960;5.886;2023-04-21T08:41:42;41.38;;;23.58;;
75377;SDS011;63959;51.960;5.886;2023-04-21T08:44:11;35.83;;;22.90;;
75377;SDS011;63959;51.960;5.886;2023-04-21T08:46:40;41.85;;;24.23;;
75377;SDS011;63959;51.960;5.886;2023-04-21T08:49:10;37.63;;;21.27;;
75377;SDS011;63959;51.960;5.886;2023-04-21T08:51:42;37.40;;;23.27;;
75377;SDS011;63959;51.960;5.886;2023-04-21T08:54:11;38.50;;;23.67;;
75377;SDS011;63959;51.960;5.886;2023-04-21T08:56:40;34.33;;;21.80;;
75377;SDS011;63959;51.960;5.886;2023-04-21T08:59:08;35.50;;;22.10;;
75377;SDS011;63959;51.960;5.886;2023-04-21T09:04:21;35.67;;;21.27;;
75377;SDS011;63959;51.960;5.886;2023-04-21T09:06:52;38.40;;;22.88;;
75377;SDS011;63959;51.960;5.886;2023-04-21T09:09:23;34.90;;;21.58;;
75377;SDS011;63959;51.960;5.886;2023-04-21T09:11:53;36.97;;;22.70;;
75377;SDS011;63959;51.960;5.886;2023-04-21T09:14:22;35.17;;;22.05;;
75377;SDS011;63959;51.960;5.886;2023-04-21T09:17:00;37.47;;;22.95;;
75377;SDS011;63959;51.960;5.886;2023-04-21T09:19:32;33.72;;;21.50;;
75377;SDS011;63959;51.960;5.886;2023-04-21T09:22:04;38.47;;;24.00;;
75377;SDS011;63959;51.960;5.886;2023-04-21T09:24:33;34.20;;;20.38;;
75377;SDS011;63959;51.960;5.886;2023-04-21T09:27:03;35.45;;;22.40;;
75377;SDS011;63959;51.960;5.886;2023-04-21T09:29:32;34.63;;;23.15;;
75377;SDS011;63959;51.960;5.886;2023-04-21T09:32:00;36.90;;;22.60;;
75377;SDS011;63959;51.960;5.886;2023-04-21T09:34:29;33.33;;;22.67;;
75377;SDS011;63959;51.960;5.886;2023-04-21T09:37:00;38.10;;;23.20;;
75377;SDS011;63959;51.960;5.886;2023-04-21T09:39:32;30.77;;;19.60;;
75377;SDS011;63959;51.960;5.886;2023-04-21T09:42:03;35.53;;;23.23;;
75377;SDS011;63959;51.960;5.886;2023-04-21T09:44:34;36.80;;;24.13;;
75377;SDS011;63959;51.960;5.886;2023-04-21T09:47:03;35.33;;;23.15;;
75377;SDS011;63959;51.960;5.886;2023-04-21T09:49:34;37.15;;;23.73;;
75377;SDS011;63959;51.960;5.886;2023-04-21T09:52:09;35.90;;;21.88;;
75377;SDS011;63959;51.960;5.886;2023-04-21T09:54:44;35.03;;;22.95;;
75377;SDS011;63959;51.960;5.886;2023-04-21T09:57:16;33.33;;;22.60;;
75377;SDS011;63959;51.960;5.886;2023-04-21T09:59:47;30.83;;;19.85;;
75377;SDS011;63959;51.960;5.886;2023-04-21T10:02:17;37.35;;;23.27;;
75377;SDS011;63959;51.960;5.886;2023-04-21T10:04:46;37.70;;;24.58;;
75377;SDS011;63959;51.960;5.886;2023-04-21T10:07:15;36.25;;;23.98;;
75377;SDS011;63959;51.960;5.886;2023-04-21T10:09:47;35.30;;;23.00;;
75377;SDS011;63959;51.960;5.886;2023-04-21T10:12:18;34.97;;;23.15;;
75377;SDS011;63959;51.960;5.886;2023-04-21T10:14:49;36.05;;;23.77;;
75377;SDS011;63959;51.960;5.886;2023-04-21T10:17:19;34.58;;;22.90;;
75377;SDS011;63959;51.960;5.886;2023-04-21T10:19:50;38.05;;;23.23;;
75377;SDS011;63959;51.960;5.886;2023-04-21T10:22:25;34.45;;;23.33;;
75377;SDS011;63959;51.960;5.886;2023-04-21T10:24:57;37.33;;;23.92;;
75377;SDS011;63959;51.960;5.886;2023-04-21T10:27:33;35.55;;;23.85;;
75377;SDS011;63959;51.960;5.886;2023-04-21T10:30:16;39.03;;;25.45;;
75377;SDS011;63959;51.960;5.886;2023-04-21T10:32:45;38.42;;;22.48;;
75377;SDS011;63959;51.960;5.886;2023-04-21T10:35:15;34.60;;;22.00;;
75377;SDS011;63959;51.960;5.886;2023-04-21T10:37:44;33.45;;;21.65;;
75377;SDS011;63959;51.960;5.886;2023-04-21T10:43:03;32.65;;;21.25;;
75377;SDS011;63959;51.960;5.886;2023-04-21T10:45:32;31.13;;;21.17;;
75377;SDS011;63959;51.960;5.886;2023-04-21T10:48:01;33.03;;;21.60;;
75377;SDS011;63959;51.960;5.886;2023-04-21T10:50:30;32.65;;;21.33;;
75377;SDS011;63959;51.960;5.886;2023-04-21T10:53:06;34.22;;;21.90;;
75377;SDS011;63959;51.960;5.886;2023-04-21T10:55:36;31.48;;;22.15;;
75377;SDS011;63959;51.960;5.886;2023-04-21T10:58:09;33.28;;;22.17;;
75377;SDS011;63959;51.960;5.886;2023-04-21T11:00:38;33.70;;;22.30;;
75377;SDS011;63959;51.960;5.886;2023-04-21T11:03:07;28.98;;;19.88;;
75377;SDS011;63959;51.960;5.886;2023-04-21T11:05:37;33.45;;;23.50;;
75377;SDS011;63959;51.960;5.886;2023-04-21T11:08:09;32.88;;;21.52;;
75377;SDS011;63959;51.960;5.886;2023-04-21T11:10:42;29.83;;;20.27;;
75377;SDS011;63959;51.960;5.886;2023-04-21T11:13:14;31.27;;;19.15;;
75377;SDS011;63959;51.960;5.886;2023-04-21T11:15:54;32.88;;;20.73;;
75377;SDS011;63959;51.960;5.886;2023-04-21T11:18:30;28.40;;;18.88;;
75377;SDS011;63959;51.960;5.886;2023-04-21T11:21:05;32.75;;;21.98;;
75377;SDS011;63959;51.960;5.886;2023-04-21T11:23:34;32.20;;;20.73;;
75377;SDS011;63959;51.960;5.886;2023-04-21T11:26:02;35.58;;;20.45;;
75377;SDS011;63959;51.960;5.886;2023-04-21T11:28:34;31.42;;;21.95;;
75377;SDS011;63959;51.960;5.886;2023-04-21T11:31:02;27.40;;;18.85;;
75377;SDS011;63959;51.960;5.886;2023-04-21T11:33:34;29.15;;;19.38;;
75377;SDS011;63959;51.960;5.886;2023-04-21T11:36:04;28.85;;;18.95;;
75377;SDS011;63959;51.960;5.886;2023-04-21T11:38:36;29.55;;;18.83;;
75377;SDS011;63959;51.960;5.886;2023-04-21T11:41:05;29.23;;;18.60;;
75377;SDS011;63959;51.960;5.886;2023-04-21T11:43:36;32.95;;;19.65;;
75377;SDS011;63959;51.960;5.886;2023-04-21T11:46:12;31.80;;;21.20;;
75377;SDS011;63959;51.960;5.886;2023-04-21T11:48:41;27.75;;;17.67;;
75377;SDS011;63959;51.960;5.886;2023-04-21T11:51:15;29.80;;;19.67;;
75377;SDS011;63959;51.960;5.886;2023-04-21T11:53:45;28.75;;;18.98;;
75377;SDS011;63959;51.960;5.886;2023-04-21T11:56:16;30.65;;;18.92;;
75377;SDS011;63959;51.960;5.886;2023-04-21T11:58:49;29.38;;;18.73;;
75377;SDS011;63959;51.960;5.886;2023-04-21T12:01:19;31.90;;;19.85;;
75377;SDS011;63959;51.960;5.886;2023-04-21T12:03:51;33.47;;;19.77;;
75377;SDS011;63959;51.960;5.886;2023-04-21T12:06:20;32.50;;;20.08;;
75377;SDS011;63959;51.960;5.886;2023-04-21T12:08:53;31.73;;;19.48;;
75377;SDS011;63959;51.960;5.886;2023-04-21T12:11:22;32.05;;;20.33;;
75377;SDS011;63959;51.960;5.886;2023-04-21T12:13:54;32.63;;;20.27;;
75377;SDS011;63959;51.960;5.886;2023-04-21T12:16:24;31.30;;;20.33;;
75377;SDS011;63959;51.960;5.886;2023-04-21T12:18:54;36.13;;;20.92;;
75377;SDS011;63959;51.960;5.886;2023-04-21T12:21:25;32.65;;;20.17;;
75377;SDS011;63959;51.960;5.886;2023-04-21T12:23:55;35.50;;;19.98;;
75377;SDS011;63959;51.960;5.886;2023-04-21T12:26:24;30.40;;;19.30;;
75377;SDS011;63959;51.960;5.886;2023-04-21T12:28:55;34.70;;;21.58;;
75377;SDS011;63959;51.960;5.886;2023-04-21T12:31:29;30.30;;;19.67;;
75377;SDS011;63959;51.960;5.886;2023-04-21T12:33:59;32.65;;;18.45;;
75377;SDS011;63959;51.960;5.886;2023-04-21T12:36:28;30.48;;;20.23;;
75377;SDS011;63959;51.960;5.886;2023-04-21T12:38:59;29.60;;;18.30;;
75377;SDS011;63959;51.960;5.886;2023-04-21T12:41:28;27.75;;;17.90;;
75377;SDS011;63959;51.960;5.886;2023-04-21T12:43:59;30.60;;;19.50;;
75377;SDS011;63959;51.960;5.886;2023-04-21T12:46:28;30.35;;;19.05;;
75377;SDS011;63959;51.960;5.886;2023-04-21T12:48:57;30.20;;;19.85;;
75377;SDS011;63959;51.960;5.886;2023-04-21T12:51:25;33.60;;;18.98;;
75377;SDS011;63959;51.960;5.886;2023-04-21T12:53:54;32.05;;;19.67;;
75377;SDS011;63959;51.960;5.886;2023-04-21T12:56:23;31.73;;;20.17;;
75377;SDS011;63959;51.960;5.886;2023-04-21T12:58:51;32.80;;;21.00;;
75377;SDS011;63959;51.960;5.886;2023-04-21T13:01:23;31.77;;;19.83;;
75377;SDS011;63959;51.960;5.886;2023-04-21T13:03:52;33.35;;;20.27;;
75377;SDS011;63959;51.960;5.886;2023-04-21T13:06:21;28.70;;;18.45;;
75377;SDS011;63959;51.960;5.886;2023-04-21T13:08:49;30.05;;;19.02;;
75377;SDS011;63959;51.960;5.886;2023-04-21T13:11:18;32.22;;;19.67;;
75377;SDS011;63959;51.960;5.886;2023-04-21T13:13:49;27.52;;;18.10;;
75377;SDS011;63959;51.960;5.886;2023-04-21T13:16:18;27.40;;;17.58;;
75377;SDS011;63959;51.960;5.886;2023-04-21T13:18:49;27.63;;;17.27;;
75377;SDS011;63959;51.960;5.886;2023-04-21T13:21:18;28.80;;;17.20;;
75377;SDS011;63959;51.960;5.886;2023-04-21T13:23:47;26.38;;;16.02;;
75377;SDS011;63959;51.960;5.886;2023-04-21T13:26:16;26.98;;;17.35;;
75377;SDS011;63959;51.960;5.886;2023-04-21T13:28:44;23.90;;;14.88;;
75377;SDS011;63959;51.960;5.886;2023-04-21T13:31:13;27.08;;;15.70;;
75377;SDS011;63959;51.960;5.886;2023-04-21T13:33:42;24.50;;;15.25;;
75377;SDS011;63959;51.960;5.886;2023-04-21T13:36:13;23.20;;;15.18;;
75377;SDS011;63959;51.960;5.886;2023-04-21T13:38:42;24.38;;;15.40;;
75377;SDS011;63959;51.960;5.886;2023-04-21T13:41:12;25.90;;;15.48;;
75377;SDS011;63959;51.960;5.886;2023-04-21T13:43:41;24.15;;;14.93;;
75377;SDS011;63959;51.960;5.886;2023-04-21T13:46:12;24.00;;;15.10;;
75377;SDS011;63959;51.960;5.886;2023-04-21T13:48:41;23.42;;;15.90;;
75377;SDS011;63959;51.960;5.886;2023-04-21T13:51:18;26.77;;;16.58;;
75377;SDS011;63959;51.960;5.886;2023-04-21T13:53:47;22.25;;;14.85;;
75377;SDS011;63959;51.960;5.886;2023-04-21T13:56:16;25.98;;;16.83;;
75377;SDS011;63959;51.960;5.886;2023-04-21T13:58:45;23.92;;;15.75;;
75377;SDS011;63959;51.960;5.886;2023-04-21T14:01:13;24.73;;;16.35;;
75377;SDS011;63959;51.960;5.886;2023-04-21T14:03:42;24.35;;;16.35;;
75377;SDS011;63959;51.960;5.886;2023-04-21T14:06:11;23.73;;;16.08;;
75377;SDS011;63959;51.960;5.886;2023-04-21T14:08:43;26.30;;;16.73;;
75377;SDS011;63959;51.960;5.886;2023-04-21T14:11:12;24.17;;;15.57;;
75377;SDS011;63959;51.960;5.886;2023-04-21T14:13:41;23.13;;;16.20;;
75377;SDS011;63959;51.960;5.886;2023-04-21T14:16:09;26.10;;;17.33;;
75377;SDS011;63959;51.960;5.886;2023-04-21T14:18:38;22.88;;;16.27;;
75377;SDS011;63959;51.960;5.886;2023-04-21T14:21:09;23.77;;;16.38;;
75377;SDS011;63959;51.960;5.886;2023-04-21T14:23:38;25.05;;;17.20;;
75377;SDS011;63959;51.960;5.886;2023-04-21T14:26:09;26.50;;;18.00;;
75377;SDS011;63959;51.960;5.886;2023-04-21T14:28:40;26.85;;;18.00;;
75377;SDS011;63959;51.960;5.886;2023-04-21T14:31:09;25.50;;;18.08;;
75377;SDS011;63959;51.960;5.886;2023-04-21T14:33:37;27.88;;;17.40;;
75377;SDS011;63959;51.960;5.886;2023-04-21T14:36:06;26.98;;;17.42;;
75377;SDS011;63959;51.960;5.886;2023-04-21T14:38:35;27.10;;;17.05;;
75377;SDS011;63959;51.960;5.886;2023-04-21T14:41:04;26.27;;;17.05;;